createdAt,value
2017-08-09T12:13:29.698Z,40.64
2017-08-09T12:13:30.275Z,40.73
2017-08-09T12:13:30.880Z,40.64
2017-08-09T12:13:31.477Z,40.66
2017-08-09T12:13:32.074Z,40.73
2017-08-09T12:13:32.677Z,40.73
2017-08-09T12:13:33.270Z,40.73
2017-08-09T12:14:27.754Z,40.61
2017-08-09T12:14:28.330Z,41.00
2017-08-09T12:14:28.931Z,40.71
2017-08-09T12:14:29.533Z,40.81
2017-08-09T12:14:30.135Z,41.00
2017-08-09T12:14:30.738Z,40.71
2017-08-09T12:14:31.331Z,41.00
2017-08-09T12:14:31.930Z,40.92
2017-08-09T12:15:25.490Z,41.97
2017-08-09T12:15:26.089Z,41.97
2017-08-09T12:15:26.686Z,42.17
2017-08-09T12:15:27.286Z,42.07
2017-08-09T12:15:27.889Z,41.97
2017-08-09T12:15:28.489Z,41.97
2017-08-09T12:15:29.090Z,42.07
2017-08-09T12:15:29.687Z,42.26
2017-08-09T12:16:23.774Z,41.64
2017-08-09T12:16:24.363Z,41.95
2017-08-09T12:16:24.954Z,41.95
2017-08-09T12:16:25.554Z,42.14
2017-08-09T12:16:26.161Z,41.25
2017-08-09T12:16:26.759Z,41.66
2017-08-09T12:16:27.359Z,41.47
2017-08-09T12:17:20.897Z,42.51
2017-08-09T12:17:21.497Z,42.61
2017-08-09T12:17:22.097Z,42.71
2017-08-09T12:17:22.698Z,42.61
2017-08-09T12:17:23.293Z,42.71
2017-08-09T12:17:23.895Z,42.61
2017-08-09T12:17:24.496Z,42.71
2017-08-09T12:17:25.096Z,42.71
2017-08-09T12:18:18.685Z,42.51
2017-08-09T12:18:19.253Z,42.71
2017-08-09T12:18:19.851Z,42.61
2017-08-09T12:18:20.453Z,42.03
2017-08-09T12:18:21.054Z,42.03
2017-08-09T12:18:21.655Z,42.61
2017-08-09T12:18:22.255Z,42.03
2017-08-09T12:18:22.851Z,42.22
2017-08-09T12:19:16.408Z,42.90
2017-08-09T12:19:17.005Z,43.00
2017-08-09T12:19:17.603Z,42.90
2017-08-09T12:19:18.203Z,42.80
2017-08-09T12:19:18.805Z,43.09
2017-08-09T12:19:19.407Z,43.00
2017-08-09T12:19:20.005Z,43.09
2017-08-09T12:19:20.608Z,43.09
2017-08-09T12:20:14.168Z,43.09
2017-08-09T12:20:14.769Z,43.21
2017-08-09T12:20:15.385Z,43.00
2017-08-09T12:20:15.953Z,43.31
2017-08-09T12:20:16.556Z,43.21
2017-08-09T12:20:17.153Z,43.12
2017-08-09T12:20:17.752Z,43.19
2017-08-09T12:20:18.353Z,43.12
2017-08-09T12:21:12.839Z,43.13
2017-08-09T12:21:13.435Z,43.13
2017-08-09T12:21:14.115Z,42.94
2017-08-09T12:21:14.633Z,42.94
2017-08-09T12:21:15.233Z,43.13
2017-08-09T12:21:15.834Z,43.04
2017-08-09T12:21:16.437Z,42.94
2017-08-09T12:21:17.036Z,42.94
2017-08-09T12:22:10.491Z,41.89
2017-08-09T12:22:11.087Z,42.67
2017-08-09T12:22:11.693Z,41.99
2017-08-09T12:22:12.289Z,42.09
2017-08-09T12:22:12.889Z,42.57
2017-08-09T12:22:13.486Z,42.48
2017-08-09T12:22:14.082Z,42.48
2017-08-09T12:22:14.689Z,42.48
2017-08-09T12:23:08.257Z,41.61
2017-08-09T12:23:08.840Z,41.89
2017-08-09T12:23:09.437Z,41.89
2017-08-09T12:23:10.040Z,41.31
2017-08-09T12:23:10.637Z,41.97
2017-08-09T12:23:11.240Z,42.09
2017-08-09T12:23:11.844Z,42.09
2017-08-09T12:23:12.444Z,42.19
2017-08-09T12:24:06.034Z,41.51
2017-08-09T12:24:06.595Z,41.39
2017-08-09T12:24:07.198Z,41.68
2017-08-09T12:24:07.791Z,42.09
2017-08-09T12:24:08.394Z,41.97
2017-08-09T12:24:08.997Z,41.78
2017-08-09T12:24:09.597Z,41.68
2017-08-09T12:24:10.335Z,41.70
2017-08-09T12:25:03.767Z,42.17
2017-08-09T12:25:04.351Z,42.17
2017-08-09T12:25:04.951Z,42.26
2017-08-09T12:25:05.551Z,42.07
2017-08-09T12:25:06.151Z,42.26
2017-08-09T12:25:06.749Z,42.07
2017-08-09T12:25:07.348Z,42.65
2017-08-09T12:25:07.950Z,41.88
2017-08-09T12:26:02.428Z,41.58
2017-08-09T12:26:03.027Z,41.66
2017-08-09T12:26:04.493Z,41.68
2017-08-09T12:26:04.993Z,41.78
2017-08-09T12:26:05.596Z,41.49
2017-08-09T12:26:06.201Z,41.58
2017-08-09T12:26:06.799Z,41.27
2017-08-09T12:27:00.282Z,40.59
2017-08-09T12:27:00.879Z,40.69
2017-08-09T12:27:01.480Z,40.79
2017-08-09T12:27:02.077Z,40.79
2017-08-09T12:27:02.684Z,40.89
2017-08-09T12:27:03.280Z,40.79
2017-08-09T12:27:03.887Z,40.99
2017-08-09T12:27:04.483Z,40.89
2017-08-09T12:27:58.958Z,41.45
2017-08-09T12:27:59.555Z,41.35
2017-08-09T12:28:00.153Z,41.64
2017-08-09T12:28:00.751Z,41.64
2017-08-09T12:28:01.365Z,41.64
2017-08-09T12:28:01.970Z,41.35
2017-08-09T12:28:02.576Z,41.45
2017-08-09T12:28:03.155Z,41.64
2017-08-09T12:28:57.123Z,42.13
2017-08-09T12:28:57.714Z,42.03
2017-08-09T12:28:58.316Z,41.93
2017-08-09T12:28:58.914Z,42.22
2017-08-09T12:28:59.514Z,42.03
2017-08-09T12:29:00.121Z,42.13
2017-08-09T12:29:00.722Z,42.03
2017-08-09T12:29:55.111Z,42.41
2017-08-09T12:29:55.675Z,42.51
2017-08-09T12:29:56.279Z,42.51
2017-08-09T12:29:56.878Z,42.51
2017-08-09T12:29:57.476Z,42.61
2017-08-09T12:29:58.079Z,42.51
2017-08-09T12:29:58.678Z,42.51
2017-08-09T12:29:59.277Z,42.32
2017-08-09T12:30:52.843Z,42.34
2017-08-09T12:30:53.433Z,42.44
2017-08-09T12:30:54.028Z,42.54
2017-08-09T12:30:54.628Z,42.44
2017-08-09T12:30:55.232Z,42.54
2017-08-09T12:30:55.832Z,42.54
2017-08-09T12:30:56.428Z,42.44
2017-08-09T12:30:57.032Z,42.54
2017-08-09T12:31:51.513Z,43.21
2017-08-09T12:31:52.112Z,43.02
2017-08-09T12:31:52.709Z,42.92
2017-08-09T12:31:53.311Z,43.12
2017-08-09T12:31:53.907Z,43.12
2017-08-09T12:31:54.507Z,43.12
2017-08-09T12:31:55.108Z,42.92
2017-08-09T12:31:55.707Z,42.72
2017-08-09T12:32:49.262Z,41.97
2017-08-09T12:32:49.866Z,42.07
2017-08-09T12:32:50.461Z,42.07
2017-08-09T12:32:51.064Z,42.07
2017-08-09T12:32:51.665Z,41.88
2017-08-09T12:32:52.268Z,41.97
2017-08-09T12:32:52.861Z,41.97
2017-08-09T12:32:53.463Z,42.17
2017-08-09T12:33:47.942Z,41.80
2017-08-09T12:33:48.546Z,41.80
2017-08-09T12:33:49.137Z,41.70
2017-08-09T12:33:49.732Z,41.70
2017-08-09T12:33:50.333Z,41.61
2017-08-09T12:33:50.933Z,41.70
2017-08-09T12:33:51.532Z,41.61
2017-08-09T12:33:52.140Z,41.80
2017-08-09T12:34:45.592Z,41.02
2017-08-09T12:34:46.190Z,40.83
2017-08-09T12:34:46.793Z,40.92
2017-08-09T12:34:47.390Z,41.02
2017-08-09T12:34:47.996Z,41.12
2017-08-09T12:34:48.590Z,40.92
2017-08-09T12:34:49.189Z,40.92
2017-08-09T12:34:49.790Z,40.83
2017-08-09T12:35:43.368Z,40.44
2017-08-09T12:35:43.945Z,40.44
2017-08-09T12:35:44.544Z,40.44
2017-08-09T12:35:45.144Z,40.44
2017-08-09T12:35:45.754Z,40.54
2017-08-09T12:35:46.349Z,40.44
2017-08-09T12:35:46.948Z,40.54
2017-08-09T12:35:47.545Z,40.54
2017-08-09T12:36:41.108Z,40.83
2017-08-09T12:36:41.715Z,41.02
2017-08-09T12:36:42.300Z,41.00
2017-08-09T12:36:42.898Z,40.81
2017-08-09T12:36:43.499Z,40.71
2017-08-09T12:36:44.100Z,40.81
2017-08-09T12:36:44.696Z,40.71
2017-08-09T12:36:45.299Z,41.00
2017-08-09T12:37:39.777Z,41.89
2017-08-09T12:37:40.376Z,41.51
2017-08-09T12:37:40.975Z,41.80
2017-08-09T12:37:41.576Z,41.80
2017-08-09T12:37:42.174Z,41.70
2017-08-09T12:37:42.772Z,41.70
2017-08-09T12:37:43.375Z,41.61
2017-08-09T12:37:43.969Z,41.70
2017-08-09T12:38:38.046Z,41.70
2017-08-09T12:38:38.640Z,41.80
2017-08-09T12:38:39.239Z,41.61
2017-08-09T12:38:39.843Z,41.51
2017-08-09T12:38:40.442Z,41.51
2017-08-09T12:38:41.041Z,41.51
2017-08-09T12:38:41.639Z,41.41
2017-08-09T12:39:36.103Z,41.05
2017-08-09T12:39:36.699Z,40.95
2017-08-09T12:39:37.296Z,40.95
2017-08-09T12:39:37.900Z,40.85
2017-08-09T12:39:38.503Z,40.85
2017-08-09T12:39:39.100Z,40.95
2017-08-09T12:39:39.699Z,40.85
2017-08-09T12:39:40.297Z,40.56
2017-08-09T12:40:34.807Z,40.66
2017-08-09T12:40:35.380Z,40.75
2017-08-09T12:40:35.979Z,40.66
2017-08-09T12:40:36.572Z,40.75
2017-08-09T12:40:37.174Z,40.75
2017-08-09T12:40:37.777Z,40.85
2017-08-09T12:40:38.377Z,40.77
2017-08-09T12:40:38.979Z,40.66
2017-08-09T12:41:32.531Z,40.83
2017-08-09T12:41:33.129Z,40.83
2017-08-09T12:41:33.731Z,40.83
2017-08-09T12:41:34.331Z,40.73
2017-08-09T12:41:34.929Z,40.83
2017-08-09T12:41:35.528Z,40.83
2017-08-09T12:41:36.127Z,40.83
2017-08-09T12:41:36.735Z,40.73
2017-08-09T12:42:30.285Z,41.22
2017-08-09T12:42:30.885Z,41.70
2017-08-09T12:42:31.483Z,41.61
2017-08-09T12:42:32.085Z,41.51
2017-08-09T12:42:32.688Z,41.70
2017-08-09T12:42:33.285Z,41.51
2017-08-09T12:42:33.885Z,41.70
2017-08-09T12:42:34.487Z,41.80
2017-08-09T12:43:28.970Z,41.78
2017-08-09T12:43:29.564Z,41.70
2017-08-09T12:43:30.162Z,41.68
2017-08-09T12:43:30.755Z,41.68
2017-08-09T12:43:31.355Z,41.68
2017-08-09T12:43:31.957Z,41.68
2017-08-09T12:43:32.559Z,41.51
2017-08-09T12:43:33.161Z,41.68
2017-08-09T12:44:26.616Z,41.95
2017-08-09T12:44:27.216Z,42.17
2017-08-09T12:44:27.820Z,42.44
2017-08-09T12:44:28.413Z,42.34
2017-08-09T12:44:29.021Z,42.44
2017-08-09T12:44:29.616Z,42.54
2017-08-09T12:44:30.214Z,42.54
2017-08-09T12:44:30.817Z,42.65
2017-08-09T12:45:25.322Z,42.51
2017-08-09T12:45:25.898Z,42.54
2017-08-09T12:45:26.495Z,42.72
2017-08-09T12:45:27.095Z,42.63
2017-08-09T12:45:27.693Z,42.54
2017-08-09T12:45:28.291Z,42.63
2017-08-09T12:45:28.891Z,42.63
2017-08-09T12:45:29.491Z,42.72
2017-08-09T12:46:23.049Z,42.71
2017-08-09T12:46:23.665Z,42.51
2017-08-09T12:46:25.025Z,42.51
2017-08-09T12:46:25.537Z,42.41
2017-08-09T12:46:26.139Z,42.41
2017-08-09T12:46:26.745Z,42.51
2017-08-09T12:46:27.343Z,42.61
2017-08-09T12:47:21.824Z,41.93
2017-08-09T12:47:22.421Z,41.93
2017-08-09T12:47:23.014Z,42.32
2017-08-09T12:47:23.619Z,42.03
2017-08-09T12:47:24.217Z,41.93
2017-08-09T12:47:24.818Z,41.93
2017-08-09T12:47:25.442Z,42.13
2017-08-09T12:47:26.018Z,42.03
2017-08-09T12:48:20.504Z,42.80
2017-08-09T12:48:21.099Z,42.80
2017-08-09T12:48:21.695Z,42.71
2017-08-09T12:48:22.298Z,43.09
2017-08-09T12:48:22.895Z,42.90
2017-08-09T12:48:23.499Z,42.90
2017-08-09T12:48:24.091Z,42.71
2017-08-09T12:48:24.694Z,43.09
2017-08-09T12:49:19.173Z,43.29
2017-08-09T12:49:19.770Z,43.48
2017-08-09T12:49:20.368Z,43.58
2017-08-09T12:49:20.982Z,43.58
2017-08-09T12:49:21.571Z,43.58
2017-08-09T12:49:22.166Z,43.58
2017-08-09T12:49:22.767Z,43.58
2017-08-09T12:49:23.371Z,43.58
2017-08-09T12:50:18.673Z,42.92
2017-08-09T12:50:19.266Z,43.02
2017-08-09T12:50:19.870Z,43.02
2017-08-09T12:50:20.468Z,43.02
2017-08-09T12:50:21.073Z,42.92
2017-08-09T12:50:21.667Z,42.82
2017-08-09T12:50:22.266Z,42.92
2017-08-09T12:50:22.864Z,43.02
2017-08-09T12:51:16.446Z,42.44
2017-08-09T12:51:17.021Z,42.46
2017-08-09T12:51:17.621Z,42.36
2017-08-09T12:51:18.225Z,42.34
2017-08-09T12:51:18.823Z,42.72
2017-08-09T12:51:19.421Z,42.72
2017-08-09T12:51:20.017Z,42.82
2017-08-09T12:51:20.620Z,42.55
2017-08-09T12:52:15.510Z,42.46
2017-08-09T12:52:16.108Z,42.46
2017-08-09T12:52:16.742Z,41.97
2017-08-09T12:52:17.306Z,42.17
2017-08-09T12:52:17.908Z,42.36
2017-08-09T12:52:18.503Z,42.17
2017-08-09T12:52:19.118Z,41.97
2017-08-09T12:53:13.566Z,41.80
2017-08-09T12:53:14.168Z,41.70
2017-08-09T12:53:14.762Z,41.89
2017-08-09T12:53:15.372Z,41.70
2017-08-09T12:53:15.970Z,41.51
2017-08-09T12:53:16.567Z,41.70
2017-08-09T12:53:17.170Z,41.61
2017-08-09T12:53:17.767Z,41.51
2017-08-09T12:54:12.272Z,41.58
2017-08-09T12:54:12.843Z,41.68
2017-08-09T12:54:13.458Z,41.78
2017-08-09T12:54:14.042Z,41.78
2017-08-09T12:54:14.660Z,41.88
2017-08-09T12:54:15.244Z,41.20
2017-08-09T12:54:15.873Z,42.17
2017-08-09T12:54:16.445Z,41.49
2017-08-09T12:55:10.917Z,41.78
2017-08-09T12:55:11.514Z,41.76
2017-08-09T12:55:12.114Z,41.58
2017-08-09T12:55:12.718Z,41.56
2017-08-09T12:55:13.312Z,41.76
2017-08-09T12:55:13.915Z,41.58
2017-08-09T12:55:14.519Z,41.56
2017-08-09T12:55:15.116Z,41.88
2017-08-09T12:56:09.733Z,42.46
2017-08-09T12:56:10.296Z,42.46
2017-08-09T12:56:10.899Z,42.55
2017-08-09T12:56:11.496Z,42.36
2017-08-09T12:56:12.099Z,42.55
2017-08-09T12:56:12.692Z,42.46
2017-08-09T12:56:13.295Z,42.55
2017-08-09T12:56:13.894Z,42.46
2017-08-09T12:57:07.454Z,42.17
2017-08-09T12:57:08.055Z,42.26
2017-08-09T12:57:08.657Z,42.26
2017-08-09T12:57:09.251Z,42.17
2017-08-09T12:57:09.855Z,42.46
2017-08-09T12:57:10.449Z,42.17
2017-08-09T12:57:11.048Z,42.46
2017-08-09T12:57:11.650Z,42.17
2017-08-09T12:58:05.223Z,41.49
2017-08-09T12:58:05.802Z,41.49
2017-08-09T12:58:06.416Z,41.68
2017-08-09T12:58:07.009Z,41.78
2017-08-09T12:58:07.607Z,41.61
2017-08-09T12:58:08.209Z,41.88
2017-08-09T12:58:08.820Z,41.68
2017-08-09T12:58:09.406Z,41.68
2017-08-09T12:59:03.477Z,41.51
2017-08-09T12:59:04.072Z,41.70
2017-08-09T12:59:04.670Z,41.80
2017-08-09T12:59:05.272Z,41.70
2017-08-09T12:59:05.880Z,41.70
2017-08-09T12:59:06.475Z,41.51
2017-08-09T12:59:07.071Z,41.31
2017-08-09T13:00:03.891Z,41.82
2017-08-09T13:00:04.482Z,41.82
2017-08-09T13:00:05.088Z,41.63
2017-08-09T13:00:05.684Z,41.72
2017-08-09T13:00:06.288Z,41.72
2017-08-09T13:00:06.888Z,41.72
2017-08-09T13:01:24.005Z,40.48
2017-08-09T13:01:24.568Z,40.58
2017-08-09T13:01:25.171Z,40.58
2017-08-09T13:02:26.123Z,39.41
2017-08-09T13:02:26.719Z,39.29
2017-08-09T13:02:27.318Z,39.32
2017-08-09T13:02:27.916Z,39.20
2017-08-09T13:02:28.516Z,39.41
2017-08-09T13:02:29.123Z,39.39
2017-08-09T13:02:29.722Z,39.49
2017-08-09T13:02:30.322Z,39.32
2017-08-09T13:02:30.923Z,39.41
2017-08-09T13:02:31.516Z,39.41
2017-08-09T13:02:32.128Z,39.39
2017-08-09T13:02:32.738Z,39.32
2017-08-09T13:03:38.218Z,39.28
2017-08-09T13:03:38.812Z,39.47
2017-08-09T13:03:39.409Z,39.29
2017-08-09T13:03:40.020Z,39.28
2017-08-09T13:03:40.616Z,39.37
2017-08-09T13:03:41.212Z,39.37
2017-08-09T13:04:54.706Z,40.25
2017-08-09T13:04:55.305Z,40.34
2017-08-09T13:04:55.912Z,40.34
2017-08-09T13:04:56.516Z,40.54
2017-08-09T13:04:57.111Z,40.34
2017-08-09T13:04:57.706Z,40.54
2017-08-09T13:04:58.300Z,40.25
2017-08-09T13:04:58.902Z,40.44
2017-08-09T13:05:52.463Z,41.20
2017-08-09T13:05:53.056Z,41.20
2017-08-09T13:05:53.666Z,41.20
2017-08-09T13:05:54.260Z,40.81
2017-08-09T13:05:54.856Z,41.10
2017-08-09T13:05:55.456Z,40.71
2017-08-09T13:05:56.075Z,40.71
2017-08-09T13:05:56.660Z,40.71
2017-08-09T13:06:50.253Z,40.81
2017-08-09T13:06:50.815Z,40.61
2017-08-09T13:06:51.418Z,40.71
2017-08-09T13:06:52.015Z,40.61
2017-08-09T13:06:52.610Z,40.71
2017-08-09T13:06:53.211Z,40.61
2017-08-09T13:06:53.815Z,40.71
2017-08-09T13:06:54.411Z,40.71
2017-08-09T13:07:47.988Z,41.30
2017-08-09T13:07:48.570Z,41.10
2017-08-09T13:07:49.173Z,41.10
2017-08-09T13:07:49.795Z,41.10
2017-08-09T13:07:50.368Z,41.00
2017-08-09T13:07:50.968Z,41.12
2017-08-09T13:07:51.571Z,41.12
2017-08-09T13:07:52.177Z,41.80
2017-08-09T13:08:46.648Z,41.20
2017-08-09T13:08:47.249Z,41.49
2017-08-09T13:08:47.845Z,41.68
2017-08-09T13:08:48.445Z,41.68
2017-08-09T13:08:49.046Z,41.68
2017-08-09T13:08:49.638Z,41.68
2017-08-09T13:08:50.240Z,41.68
2017-08-09T13:08:50.855Z,41.78
2017-08-09T13:09:45.330Z,41.88
2017-08-09T13:09:45.922Z,42.07
2017-08-09T13:09:46.524Z,42.07
2017-08-09T13:09:47.125Z,41.97
2017-08-09T13:09:47.717Z,42.17
2017-08-09T13:09:48.314Z,41.78
2017-08-09T13:09:48.913Z,41.68
2017-08-09T13:09:49.517Z,41.78
2017-08-09T13:10:43.074Z,41.88
2017-08-09T13:10:43.673Z,41.88
2017-08-09T13:10:44.280Z,41.88
2017-08-09T13:10:44.870Z,42.07
2017-08-09T13:10:45.472Z,41.97
2017-08-09T13:10:46.078Z,42.07
2017-08-09T13:10:46.675Z,42.26
2017-08-09T13:10:47.273Z,42.17
2017-08-09T13:11:41.771Z,42.26
2017-08-09T13:11:42.357Z,42.17
2017-08-09T13:11:42.958Z,42.26
2017-08-09T13:11:43.542Z,42.46
2017-08-09T13:11:44.151Z,41.88
2017-08-09T13:11:44.751Z,42.07
2017-08-09T13:11:45.346Z,42.26
2017-08-09T13:11:45.948Z,42.19
2017-08-09T13:12:40.162Z,42.61
2017-08-09T13:12:40.726Z,42.61
2017-08-09T13:12:41.235Z,42.51
2017-08-09T13:12:41.836Z,42.51
2017-08-09T13:12:42.434Z,42.61
2017-08-09T13:12:43.052Z,42.41
2017-08-09T13:12:43.638Z,42.41
2017-08-09T13:13:37.156Z,43.19
2017-08-09T13:13:37.757Z,43.38
2017-08-09T13:13:38.389Z,43.29
2017-08-09T13:13:38.974Z,43.38
2017-08-09T13:13:39.570Z,43.38
2017-08-09T13:13:40.157Z,43.48
2017-08-09T13:13:40.776Z,43.29
2017-08-09T13:13:41.375Z,43.38
2017-08-09T13:14:35.324Z,43.48
2017-08-09T13:14:35.919Z,43.38
2017-08-09T13:14:36.520Z,43.48
2017-08-09T13:14:37.120Z,43.38
2017-08-09T13:14:37.718Z,43.29
2017-08-09T13:14:38.320Z,43.29
2017-08-09T13:14:38.915Z,43.29
2017-08-09T13:15:33.382Z,43.29
2017-08-09T13:15:33.975Z,43.48
2017-08-09T13:15:34.578Z,43.58
2017-08-09T13:15:35.179Z,43.48
2017-08-09T13:15:35.799Z,43.68
2017-08-09T13:15:36.381Z,43.58
2017-08-09T13:15:36.975Z,43.58
2017-08-09T13:15:37.583Z,43.58
2017-08-09T13:16:32.059Z,43.46
2017-08-09T13:16:32.656Z,43.17
2017-08-09T13:16:33.251Z,43.27
2017-08-09T13:16:33.850Z,43.37
2017-08-09T13:16:34.460Z,43.46
2017-08-09T13:16:35.053Z,43.27
2017-08-09T13:16:35.656Z,43.37
2017-08-09T13:16:36.255Z,43.37
2017-08-09T13:17:30.760Z,44.50
2017-08-09T13:17:31.332Z,44.79
2017-08-09T13:17:31.930Z,44.79
2017-08-09T13:17:32.528Z,44.70
2017-08-09T13:17:33.128Z,44.89
2017-08-09T13:17:33.730Z,44.70
2017-08-09T13:17:34.325Z,44.50
2017-08-09T13:17:34.932Z,44.79
2017-08-09T13:18:29.408Z,45.47
2017-08-09T13:18:30.005Z,45.35
2017-08-09T13:18:30.608Z,45.47
2017-08-09T13:18:31.207Z,45.45
2017-08-09T13:18:31.803Z,45.57
2017-08-09T13:18:32.400Z,45.76
2017-08-09T13:18:33.005Z,45.74
2017-08-09T13:18:33.601Z,45.76
2017-08-09T13:19:27.294Z,46.05
2017-08-09T13:19:27.889Z,45.57
2017-08-09T13:19:28.485Z,46.05
2017-08-09T13:19:29.074Z,46.05
2017-08-09T13:19:29.683Z,45.47
2017-08-09T13:19:30.269Z,45.95
2017-08-09T13:19:30.875Z,45.95
2017-08-09T13:19:31.444Z,45.86
2017-08-09T13:20:25.839Z,45.57
2017-08-09T13:20:26.434Z,45.78
2017-08-09T13:20:27.035Z,45.88
2017-08-09T13:20:27.637Z,45.68
2017-08-09T13:20:28.236Z,45.30
2017-08-09T13:20:28.850Z,45.49
2017-08-09T13:20:29.433Z,45.40
2017-08-09T13:20:30.042Z,45.01
2017-08-09T13:21:23.490Z,44.74
2017-08-09T13:21:24.094Z,44.84
2017-08-09T13:21:24.691Z,44.72
2017-08-09T13:21:25.285Z,44.91
2017-08-09T13:21:25.884Z,44.91
2017-08-09T13:21:26.488Z,44.81
2017-08-09T13:21:27.089Z,44.91
2017-08-09T13:21:27.696Z,45.01
2017-08-09T13:22:21.271Z,45.68
2017-08-09T13:22:21.840Z,45.61
2017-08-09T13:22:22.447Z,45.71
2017-08-09T13:22:23.046Z,45.78
2017-08-09T13:22:23.644Z,45.81
2017-08-09T13:22:24.245Z,45.59
2017-08-09T13:22:24.841Z,45.49
2017-08-09T13:22:25.439Z,45.71
2017-08-09T13:23:19.916Z,45.10
2017-08-09T13:23:20.516Z,44.72
2017-08-09T13:23:21.111Z,44.81
2017-08-09T13:23:21.711Z,44.64
2017-08-09T13:23:22.326Z,44.53
2017-08-09T13:23:22.917Z,44.72
2017-08-09T13:23:23.521Z,44.72
2017-08-09T13:23:24.116Z,44.33
2017-08-09T13:24:18.595Z,45.68
2017-08-09T13:24:19.194Z,45.78
2017-08-09T13:24:19.791Z,45.49
2017-08-09T13:24:20.391Z,45.40
2017-08-09T13:24:20.994Z,45.59
2017-08-09T13:24:21.588Z,45.68
2017-08-09T13:24:22.189Z,45.59
2017-08-09T13:24:22.790Z,45.59
2017-08-09T13:25:17.273Z,46.09
2017-08-09T13:25:17.866Z,46.29
2017-08-09T13:25:18.465Z,46.19
2017-08-09T13:25:19.062Z,46.19
2017-08-09T13:25:19.668Z,46.19
2017-08-09T13:25:20.262Z,46.09
2017-08-09T13:25:20.866Z,46.09
2017-08-09T13:25:21.464Z,46.48
2017-08-09T13:26:15.024Z,45.03
2017-08-09T13:26:15.618Z,44.93
2017-08-09T13:26:16.230Z,45.13
2017-08-09T13:26:16.824Z,44.93
2017-08-09T13:26:17.426Z,45.03
2017-08-09T13:26:18.024Z,44.74
2017-08-09T13:26:18.624Z,44.84
2017-08-09T13:26:19.221Z,44.74
2017-08-09T13:27:12.779Z,45.22
2017-08-09T13:27:13.378Z,45.81
2017-08-09T13:27:13.989Z,45.61
2017-08-09T13:27:14.576Z,45.71
2017-08-09T13:27:15.181Z,45.61
2017-08-09T13:27:15.778Z,45.61
2017-08-09T13:27:16.377Z,45.42
2017-08-09T13:27:16.980Z,45.42
2017-08-09T13:28:10.558Z,44.45
2017-08-09T13:28:11.128Z,44.45
2017-08-09T13:28:11.730Z,44.35
2017-08-09T13:28:12.331Z,44.54
2017-08-09T13:28:12.929Z,44.26
2017-08-09T13:28:13.527Z,44.35
2017-08-09T13:28:14.130Z,44.35
2017-08-09T13:28:14.731Z,44.16
2017-08-09T13:29:08.795Z,43.96
2017-08-09T13:29:09.393Z,43.96
2017-08-09T13:29:10.002Z,43.96
2017-08-09T13:29:10.599Z,43.77
2017-08-09T13:29:11.200Z,43.87
2017-08-09T13:29:11.798Z,43.87
2017-08-09T13:29:12.396Z,43.87
2017-08-09T13:29:12.992Z,43.96
2017-08-09T13:30:07.989Z,43.60
2017-08-09T13:30:08.583Z,43.60
2017-08-09T13:30:09.188Z,43.50
2017-08-09T13:30:09.784Z,43.60
2017-08-09T13:30:10.386Z,43.60
2017-08-09T13:30:10.996Z,43.50
2017-08-09T13:31:05.025Z,43.29
2017-08-09T13:31:05.622Z,43.19
2017-08-09T13:31:06.225Z,43.29
2017-08-09T13:31:06.839Z,43.58
2017-08-09T13:31:07.425Z,43.38
2017-08-09T13:31:08.023Z,43.38
2017-08-09T13:31:08.625Z,43.19
2017-08-09T13:31:09.222Z,43.29
2017-08-09T13:32:22.846Z,42.97
2017-08-09T13:32:23.444Z,42.97
2017-08-09T13:32:24.044Z,43.07
2017-08-09T13:32:24.726Z,42.97
2017-08-09T13:32:25.250Z,42.97
2017-08-09T13:32:25.845Z,42.88
2017-08-09T13:32:26.446Z,43.00
2017-08-09T13:32:27.043Z,42.88
2017-08-09T13:33:22.070Z,42.40
2017-08-09T13:33:22.642Z,42.40
2017-08-09T13:33:23.237Z,42.59
2017-08-09T13:33:23.833Z,42.68
2017-08-09T13:33:24.434Z,42.59
2017-08-09T13:33:25.041Z,42.30
2017-08-09T13:34:19.587Z,42.88
2017-08-09T13:34:20.179Z,42.68
2017-08-09T13:34:20.782Z,42.78
2017-08-09T13:34:21.379Z,42.88
2017-08-09T13:34:22.061Z,43.09
2017-08-09T13:34:22.586Z,42.97
2017-08-09T13:34:23.183Z,42.78
2017-08-09T13:35:24.202Z,42.34
2017-08-09T13:35:24.796Z,42.32
2017-08-09T13:35:25.406Z,41.83
2017-08-09T13:35:25.996Z,42.03
2017-08-09T13:35:26.596Z,42.14
2017-08-09T13:35:27.202Z,42.13
2017-08-09T13:35:27.803Z,42.05
2017-08-09T13:35:28.402Z,41.93
2017-08-09T13:35:28.998Z,42.05
2017-08-09T13:35:29.605Z,42.14
2017-08-09T13:35:30.197Z,41.76
2017-08-09T13:35:30.798Z,41.56
2017-08-09T13:36:24.314Z,40.31
2017-08-09T13:36:24.910Z,40.59
2017-08-09T13:36:25.517Z,40.42
2017-08-09T13:36:26.110Z,40.69
2017-08-09T13:36:26.721Z,40.59
2017-08-09T13:36:27.310Z,40.79
2017-08-09T13:36:27.904Z,40.71
2017-08-09T13:36:28.503Z,40.61
2017-08-09T13:37:32.098Z,40.69
2017-08-09T13:37:32.693Z,40.69
2017-08-09T13:37:33.297Z,40.81
2017-08-09T13:37:33.944Z,40.79
2017-08-09T13:37:34.493Z,40.61
2017-08-09T13:37:35.093Z,40.69
2017-08-09T13:37:35.696Z,40.50
2017-08-09T13:37:36.303Z,40.50
2017-08-09T13:38:29.883Z,40.52
2017-08-09T13:38:30.447Z,40.52
2017-08-09T13:38:31.069Z,40.52
2017-08-09T13:38:31.646Z,40.61
2017-08-09T13:38:32.248Z,40.42
2017-08-09T13:38:32.853Z,40.52
2017-08-09T13:38:33.457Z,40.91
2017-08-09T13:38:34.051Z,40.91
2017-08-09T13:39:29.040Z,39.26
2017-08-09T13:39:29.645Z,39.26
2017-08-09T13:39:30.237Z,39.18
2017-08-09T13:39:30.835Z,39.18
2017-08-09T13:39:31.434Z,39.16
2017-08-09T13:39:32.040Z,39.26
2017-08-09T13:40:26.082Z,39.74
2017-08-09T13:40:26.676Z,39.94
2017-08-09T13:40:27.272Z,39.74
2017-08-09T13:40:27.875Z,39.26
2017-08-09T13:40:28.612Z,39.65
2017-08-09T13:40:29.095Z,39.45
2017-08-09T13:40:29.673Z,39.16
2017-08-09T13:40:30.278Z,39.16
2017-08-09T13:41:25.261Z,40.13
2017-08-09T13:41:25.860Z,40.03
2017-08-09T13:41:26.463Z,39.94
2017-08-09T13:41:27.058Z,40.03
2017-08-09T13:41:27.658Z,40.03
2017-08-09T13:41:28.258Z,40.03
2017-08-09T13:41:28.861Z,40.03
2017-08-09T13:42:22.407Z,39.28
2017-08-09T13:42:23.005Z,39.28
2017-08-09T13:42:23.615Z,39.18
2017-08-09T13:42:24.210Z,39.28
2017-08-09T13:42:24.804Z,39.28
2017-08-09T13:42:25.403Z,39.28
2017-08-09T13:42:26.003Z,39.28
2017-08-09T13:42:26.603Z,39.18
2017-08-09T13:43:22.617Z,39.29
2017-08-09T13:43:23.215Z,39.20
2017-08-09T13:43:23.821Z,39.29
2017-08-09T13:43:24.409Z,39.49
2017-08-09T13:43:25.009Z,39.29
2017-08-09T13:43:25.609Z,39.29
2017-08-09T13:44:19.679Z,38.81
2017-08-09T13:44:20.248Z,38.81
2017-08-09T13:44:20.852Z,38.93
2017-08-09T13:44:21.451Z,38.64
2017-08-09T13:44:22.056Z,38.62
2017-08-09T13:44:22.656Z,38.64
2017-08-09T13:44:23.251Z,38.83
2017-08-09T13:44:23.853Z,38.81
2017-08-09T13:45:17.814Z,39.11
2017-08-09T13:45:18.413Z,38.91
2017-08-09T13:45:19.018Z,38.91
2017-08-09T13:45:19.612Z,38.91
2017-08-09T13:45:20.213Z,38.91
2017-08-09T13:45:20.814Z,39.11
2017-08-09T13:45:21.413Z,39.01
2017-08-09T13:46:14.959Z,39.39
2017-08-09T13:46:15.555Z,39.22
2017-08-09T13:46:16.152Z,39.32
2017-08-09T13:46:16.753Z,39.22
2017-08-09T13:46:17.355Z,39.29
2017-08-09T13:46:17.956Z,39.32
2017-08-09T13:46:18.560Z,39.41
2017-08-09T13:46:19.156Z,39.32
2017-08-09T13:47:12.713Z,38.13
2017-08-09T13:47:13.305Z,38.15
2017-08-09T13:47:13.907Z,38.13
2017-08-09T13:47:14.507Z,38.25
2017-08-09T13:47:15.112Z,38.15
2017-08-09T13:47:15.714Z,38.25
2017-08-09T13:47:16.313Z,38.32
2017-08-09T13:47:16.910Z,38.23
2017-08-09T13:48:11.287Z,38.04
2017-08-09T13:48:11.884Z,38.13
2017-08-09T13:48:12.485Z,38.13
2017-08-09T13:48:13.079Z,38.13
2017-08-09T13:48:13.683Z,38.04
2017-08-09T13:48:14.280Z,37.84
2017-08-09T13:48:14.879Z,37.74
2017-08-09T13:48:15.483Z,37.84
2017-08-09T13:49:09.990Z,39.01
2017-08-09T13:49:10.552Z,38.71
2017-08-09T13:49:11.161Z,38.52
2017-08-09T13:49:11.753Z,38.52
2017-08-09T13:49:12.353Z,38.71
2017-08-09T13:49:12.967Z,38.52
2017-08-09T13:49:13.558Z,38.62
2017-08-09T13:49:14.155Z,38.62
2017-08-09T13:50:07.721Z,39.28
2017-08-09T13:50:08.313Z,39.28
2017-08-09T13:50:08.916Z,39.37
2017-08-09T13:50:09.509Z,39.18
2017-08-09T13:50:10.112Z,39.28
2017-08-09T13:50:10.711Z,39.47
2017-08-09T13:50:11.312Z,39.47
2017-08-09T13:50:11.908Z,39.28
2017-08-09T13:51:07.321Z,39.95
2017-08-09T13:51:07.909Z,39.86
2017-08-09T13:51:08.509Z,40.05